Latest Weather Observations for Nowra

IDN60901

Issued at 10:11 pm EST Saturday 1 October 2016 (issued every 10 minutes, with the page automatically refreshed every 10 minutes)

About weather observations | Map of Canberra area stations | Latest observations for Canberra area | Other Formats
Station Details ID: 068072 Name: NOWRA RAN AIR STATION AWS Lat: -34.95 Lon: 150.54 Height: 109.0 m
Data from the previous 72 hours. | See also: Recent months at Nowra
Date/Time
EST
Temp
°C
App
Temp
°C
Dew
Point
°C
Rel
Hum
%
Delta-T
°C
Wind Press
QNH
hPa
Press
MSL
hPa
Rain since
9am
mm
Dir  Spd
km/h
Gust
km/h
Spd
kts
Gust
kts
01/10:00pm 14.7 9.8 5.0 52 4.6 WNW 20 33 11 18 1009.4 1009.2 0.0
01/09:30pm 14.8 10.4 4.8 51 4.7 WNW 17 32 9 17 1009.3 1009.1 0.0
01/09:10pm 15.0 8.6 5.0 51 4.7 WNW 28 46 15 25 1009.2 1009.0 0.0
01/09:00pm 14.7 9.0 5.0 52 4.6 WNW 24 35 13 19 1009.2 1009.0 0.0
01/08:30pm 14.8 8.4 5.1 52 4.6 WNW 28 41 15 22 1009.0 1008.8 0.0
01/08:00pm 14.8 8.8 5.1 52 4.6 WNW 26 39 14 21 1008.6 1008.4 0.0
01/07:30pm 15.0 7.1 4.4 49 4.9 WNW 35 56 19 30 1008.1 1007.9 0.0
01/07:00pm 15.2 7.7 4.3 48 5.1 WNW 33 52 18 28 1007.4 1007.2 0.0
01/06:30pm 15.5 6.5 4.8 49 5.1 WNW 41 63 22 34 1006.7 1006.5 0.0
01/06:00pm 15.4 9.1 5.6 52 4.7 WNW 28 46 15 25 1006.2 1006.0 0.0
01/05:30pm 16.0 8.7 5.6 50 5.0 WNW 33 57 18 31 1006.0 1005.8 0.0
01/05:09pm 16.3 8.6 5.3 48 5.3 WNW 35 54 19 29 1005.8 1005.6 0.0
01/05:00pm 16.5 8.0 5.2 47 5.4 WNW 39 52 21 28 1005.7 1005.5 0.0
01/04:30pm 16.9 7.6 5.2 46 5.6 W 43 57 23 31 1005.5 1005.3 0.0
01/04:11pm 17.1 9.5 6.0 48 5.4 WNW 35 54 19 29 1005.1 1004.9 0.0
01/04:00pm 17.7 9.3 5.6 45 5.9 W 39 54 21 29 1004.9 1004.7 0.0
01/03:30pm 18.5 10.1 5.7 43 6.3 WNW 39 57 21 31 1004.5 1004.3 0.0
01/03:09pm 18.0 9.7 5.9 45 6.0 WNW 39 57 21 31 1004.3 1004.1 0.0
01/03:00pm 18.4 9.1 5.9 44 6.2 WNW 44 61 24 33 1004.1 1003.9 0.0
01/02:30pm 19.1 10.3 5.6 41 6.7 WNW 41 65 22 35 1003.6 1003.4 0.0
01/02:01pm 19.7 10.0 5.7 40 6.9 WNW 46 65 25 35 1003.2 1003.0 0.0
01/02:00pm 19.7 10.1 6.1 41 6.8 WNW 46 63 25 34 1003.2 1003.0 0.0
01/01:30pm 19.2 8.3 5.6 41 6.7 W 52 70 28 38 1003.3 1003.1 0.0
01/01:00pm 18.5 10.1 5.4 42 6.4 WNW 39 65 21 35 1003.4 1003.2 0.0
01/12:30pm 19.3 10.6 6.1 42 6.6 WNW 41 59 22 32 1003.3 1003.1 0.0
01/12:00pm 19.1 10.2 6.9 45 6.2 WNW 43 69 23 37 1003.3 1003.1 0.0
01/11:30am 18.9 10.0 7.0 46 6.0 WNW 43 63 23 34 1003.4 1003.2 0.0
01/11:00am 19.1 11.0 7.2 46 6.1 WNW 39 61 21 33 1003.1 1002.9 0.0
01/10:32am 18.7 11.7 6.9 46 5.9 WNW 33 59 18 32 1003.4 1003.2 0.0
01/10:30am 18.7 12.0 7.2 47 5.8 WNW 32 52 17 28 1003.3 1003.1 0.0
01/10:06am 18.1 10.1 7.5 50 5.4 W 39 57 21 31 1003.6 1003.4 0.0
01/10:00am 17.6 8.8 7.1 50 5.3 W 43 57 23 31 1003.4 1003.2 0.0
01/09:30am 18.0 10.1 7.7 51 5.3 WNW 39 63 21 34 1002.7 1002.6 0.0
01/09:00am 17.0 6.1 7.4 53 4.9 WNW 54 78 29 42 1001.8 1001.7 0.2
01/08:32am 16.5 7.0 6.9 53 4.8 WNW 46 67 25 36 1002.1 1002.0 0.2
01/08:30am 16.7 7.4 7.4 54 4.7 WNW 46 61 25 33 1002.1 1002.0 0.2
01/08:11am 16.3 6.5 7.0 54 4.6 WNW 48 80 26 43 1001.8 1001.7 0.2
01/08:00am 16.2 8.2 7.4 56 4.4 WNW 39 57 21 31 1001.8 1001.7 0.2
01/07:46am 15.9 9.1 7.7 58 4.1 WNW 33 52 18 28 1002.2 1002.1 0.2
01/07:30am 15.1 8.4 7.4 60 3.8 WNW 32 48 17 26 1002.3 1002.2 0.2
01/07:13am 14.1 8.2 7.6 65 3.2 WNW 28 48 15 26 1002.4 1002.3 0.2
01/07:00am 14.1 8.6 7.6 65 3.2 WNW 26 35 14 19 1002.7 1002.6 0.2
01/06:30am 14.6 9.8 7.2 61 3.6 WNW 22 35 12 19 1002.2 1002.1 0.2
01/06:00am 13.4 10.2 6.7 64 3.3 WNW 13 22 7 12 1001.6 1001.5 0.2
01/05:30am 13.1 9.7 6.0 62 3.4 NW 13 22 7 12 1001.2 1001.1 0.2
01/05:00am 13.7 7.8 5.8 59 3.8 WNW 26 44 14 24 1000.4 1000.3 0.2
01/04:30am 13.4 7.7 6.5 63 3.3 WNW 26 43 14 23 999.9 999.8 0.2
01/04:00am 13.3 6.5 6.9 65 3.1 WNW 32 50 17 27 999.4 999.3 0.2
01/03:52am 13.4 7.0 7.0 65 3.1 WNW 30 50 16 27 999.3 999.2 0.2
01/03:30am 13.2 6.4 6.8 65 3.1 WNW 32 46 17 25 998.9 998.8 0.2
01/03:21am 13.0 6.9 6.8 66 3.0 WNW 28 46 15 25 998.9 998.8 0.2
01/03:00am 12.4 6.7 6.5 67 2.8 WNW 26 35 14 19 998.9 998.8 0.2
01/02:30am 12.6 6.0 6.2 65 3.0 WNW 30 46 16 25 999.0 998.9 0.2
01/02:25am 12.6 6.4 6.2 65 3.0 WNW 28 46 15 25 999.0 998.9 0.2
01/02:00am 12.3 6.8 5.7 64 3.1 WNW 24 39 13 21 999.5 999.4 0.2
01/01:30am 12.1 7.1 4.8 61 3.4 WNW 20 28 11 15 999.7 999.6 0.2
01/01:00am 12.3 7.5 4.5 59 3.6 WNW 19 24 10 13 999.7 999.6 0.2
01/12:30am 12.3 8.3 4.8 60 3.5 W 15 24 8 13 999.8 999.7 0.2
01/12:00am 11.3 8.8 5.0 65 2.9 NW 7 13 4 7 999.6 999.5 0.2
 
Date/Time
EST
Temp
°C
App
Temp
°C
Dew
Point
°C
Rel
Hum
%
Delta-T
°C
Wind Press
QNH
hPa
Press
MSL
hPa
Rain since
9am
mm
Dir  Spd
km/h
Gust
km/h
Spd
kts
Gust
kts
30/11:30pm 11.5 7.5 4.7 63 3.1 W 15 24 8 13 999.9 999.8 0.2
30/11:00pm 12.1 5.2 4.6 60 3.5 WNW 30 41 16 22 999.5 999.4 0.2
30/10:30pm 12.5 3.8 4.2 57 3.8 WNW 39 61 21 33 999.6 999.5 0.2
30/10:08pm 12.8 5.8 4.3 56 3.9 WNW 30 48 16 26 998.9 998.8 0.2
30/10:00pm 13.0 5.6 4.2 55 4.1 WNW 32 48 17 26 998.9 998.8 0.2
30/09:30pm 13.3 4.6 4.2 54 4.2 WNW 39 57 21 31 999.1 999.0 0.2
30/09:12pm 13.4 5.9 4.6 55 4.1 WNW 33 54 18 29 999.0 998.9 0.2
30/09:00pm 13.1 7.0 4.8 57 3.9 WNW 26 41 14 22 999.1 999.0 0.2
30/08:44pm 13.3 6.8 4.7 56 4.0 WNW 28 52 15 28 999.0 998.9 0.2
30/08:30pm 12.9 7.2 4.8 58 3.7 WNW 24 37 13 20 998.8 998.7 0.2
30/08:00pm 12.9 5.5 4.8 58 3.8 WNW 33 48 18 26 998.7 998.6 0.2
30/07:30pm 13.0 5.8 4.9 58 3.8 WNW 32 50 17 27 998.3 998.2 0.2
30/07:05pm 12.9 5.6 4.6 57 3.8 WNW 32 50 17 27 998.2 998.1 0.2
30/07:00pm 13.0 5.5 4.7 57 3.9 WNW 33 50 18 27 998.3 998.2 0.2
30/06:30pm 13.0 5.7 4.7 57 3.8 WNW 32 50 17 27 997.9 997.8 0.2
30/06:02pm 13.4 6.9 4.8 56 4.0 WNW 28 48 15 26 997.8 997.7 0.2
30/06:00pm 13.3 7.2 5.0 57 3.9 WNW 26 43 14 23 997.9 997.8 0.2
30/05:30pm 14.2 7.4 5.0 54 4.3 NW 30 52 16 28 997.3 997.2 0.2
30/05:00pm 14.5 8.1 5.3 54 4.4 WNW 28 43 15 23 997.2 997.1 0.2
30/04:30pm 15.2 9.2 5.1 51 4.8 WNW 26 54 14 29 996.6 996.5 0.2
30/04:00pm 15.4 8.9 4.8 49 5.0 NW 28 44 15 24 996.0 995.9 0.2
30/03:30pm 16.3 8.7 5.6 49 5.2 WNW 35 48 19 26 995.6 995.5 0.2
30/03:01pm 15.9 8.4 4.6 47 5.3 NW 33 56 18 30 995.5 995.3 0.2
30/03:00pm 16.0 8.7 4.4 46 5.5 NW 32 46 17 25 995.5 995.3 0.2
30/02:30pm 15.8 8.4 4.8 48 5.2 NNW 33 48 18 26 995.2 995.0 0.2
30/02:00pm 15.9 9.2 5.8 51 4.9 NW 30 44 16 24 995.4 995.2 0.2
30/01:46pm 15.6 8.5 6.3 54 4.5 NW 33 48 18 26 995.6 995.5 0.2
30/01:36pm 15.0 9.1 6.0 55 4.3 NNW 26 48 14 26 995.6 995.5 0.2
30/01:30pm 15.2 10.6 5.4 52 4.7 NNW 19 39 10 21 995.5 995.3 0.2
30/01:00pm 14.2 10.0 7.3 63 3.4 NNW 19 32 10 17 995.7 995.6 0.2
30/12:30pm 14.5 10.1 7.5 63 3.5 N 20 32 11 17 995.8 995.7 0.2
30/12:00pm 13.3 9.1 7.5 68 2.9 N 19 32 10 17 996.4 996.3 0.0
30/11:30am 14.5 9.4 5.8 56 4.2 NNW 22 35 12 19 996.5 996.4 0.0
30/11:00am 14.9 8.6 5.7 54 4.4 NNW 28 46 15 25 996.2 996.1 0.0
30/10:30am 15.1 8.7 5.0 51 4.8 NNW 28 43 15 23 996.3 996.2 0.0
30/10:00am 14.4 8.7 4.7 52 4.6 NNW 24 37 13 20 996.5 996.4 0.0
30/09:30am 14.0 9.1 4.0 51 4.6 NNW 19 30 10 16 996.7 996.6 0.0
30/09:00am 13.8 7.9 3.9 51 4.6 NNW 24 39 13 21 996.7 996.6 2.2
30/08:30am 13.6 6.9 3.7 51 4.5 NNW 28 46 15 25 996.7 996.6 2.2
30/08:00am 13.2 8.0 3.8 53 4.3 NNW 20 33 11 18 996.5 996.4 2.2
30/07:30am 13.6 8.0 3.4 50 4.6 NNW 22 30 12 16 996.2 996.1 2.2
30/07:00am 11.9 8.1 3.7 57 3.7 N 13 17 7 9 996.1 996.0 2.2
30/06:30am 11.7 7.8 3.5 57 3.6 N 13 19 7 10 996.1 996.0 2.2
30/06:00am 10.7 7.1 3.0 59 3.4 NNW 11 15 6 8 995.8 995.7 2.2
30/05:30am 9.2 6.0 3.0 65 2.7 N 9 15 5 8 995.8 995.7 2.2
30/05:00am 9.7 6.5 3.0 63 2.9 NNW 9 13 5 7 995.6 995.5 2.2
30/04:30am 10.7 8.0 2.5 57 3.5 NNW 6 9 3 5 995.5 995.3 2.2
30/04:00am 11.6 8.0 2.9 55 3.9 N 11 20 6 11 995.4 995.2 2.2
30/03:30am 11.7 7.3 2.5 53 4.0 NNW 15 20 8 11 995.5 995.3 2.2
30/03:00am 12.4 7.0 2.6 51 4.3 NNW 20 32 11 17 995.5 995.3 2.2
30/02:30am 12.2 7.3 2.1 50 4.4 NNW 17 26 9 14 995.7 995.6 2.2
30/02:00am 12.6 7.3 1.6 47 4.8 NW 19 30 10 16 995.9 995.8 2.2
30/01:30am 12.6 7.1 1.9 48 4.6 NW 20 30 11 16 995.7 995.6 2.2
30/01:00am 12.4 6.5 2.0 49 4.5 NW 22 33 12 18 995.8 995.7 2.2
30/12:30am 12.1 6.4 2.8 53 4.1 NW 22 32 12 17 996.1 996.0 2.2
30/12:00am 11.8 6.6 3.3 56 3.8 NW 20 33 11 18 996.3 996.2 2.2
 
Date/Time
EST
Temp
°C
App
Temp
°C
Dew
Point
°C
Rel
Hum
%
Delta-T
°C
Wind Press
QNH
hPa
Press
MSL
hPa
Rain since
9am
mm
Dir  Spd
km/h
Gust
km/h
Spd
kts
Gust
kts
29/11:30pm 12.4 6.4 3.1 53 4.1 WNW 24 39 13 21 996.8 996.7 2.2
29/11:00pm 12.3 8.2 2.5 51 4.3 NW 13 20 7 11 996.5 996.4 2.2
29/10:30pm 12.4 8.4 2.8 52 4.2 NW 13 20 7 11 996.5 996.4 2.2
29/10:00pm 12.1 8.6 3.3 55 3.9 NW 11 24 6 13 996.6 996.5 2.2
29/09:30pm 12.3 8.4 3.3 54 4.0 NNW 13 22 7 12 996.4 996.3 2.2
29/09:00pm 12.3 8.4 3.3 54 4.0 N 13 20 7 11 996.0 995.9 2.2
29/08:30pm 13.3 8.9 2.8 49 4.7 NNW 15 22 8 12 995.7 995.6 2.2
29/08:00pm 13.9 10.6 2.2 45 5.2 NNW 9 17 5 9 995.7 995.6 2.2
29/07:30pm 14.2 9.8 2.5 45 5.2 NW 15 28 8 15 995.7 995.6 2.2
29/07:00pm 14.3 11.2 3.5 48 5.0 NW 9 17 5 9 995.1 994.9 2.2
29/06:30pm 14.5 11.0 3.3 47 5.1 WNW 11 15 6 8 994.8 994.6 2.2
29/06:00pm 15.4 10.1 2.9 43 5.7 WNW 20 30 11 16 994.3 994.1 2.2
29/05:30pm 16.5 10.0 2.9 40 6.2 WNW 26 39 14 21 994.4 994.2 2.2
29/05:00pm 17.4 11.3 3.0 38 6.7 WNW 24 35 13 19 994.1 993.9 2.2
29/04:30pm 17.6 10.4 2.8 37 6.8 WNW 30 44 16 24 993.9 993.7 2.2
29/04:00pm 19.2 13.2 3.4 35 7.5 NW 24 32 13 17 993.3 993.1 2.2
29/03:30pm 19.7 14.6 4.2 36 7.5 NW 20 37 11 20 992.9 992.7 2.2
29/03:00pm 19.4 16.5 10.9 58 4.7 N 17 26 9 14 992.5 992.4 2.2
29/02:30pm 18.6 16.0 11.9 65 3.7 N 17 24 9 13 992.5 992.4 2.0
29/02:00pm 17.6 15.5 13.7 78 2.2 N 17 22 9 12 993.2 993.0 2.0
29/01:30pm 15.9 14.8 13.2 84 1.5 N 11 15 6 8 994.2 994.0 2.0
29/01:18pm 15.9 14.8 13.0 83 1.6 NNW 11 15 6 8 994.4 994.2 2.0
29/01:00pm 16.4 15.3 11.8 74 2.5 NW 9 11 5 6 994.5 994.3 1.4
29/12:30pm 16.5 14.2 10.6 68 3.2 N 13 19 7 10 995.0 994.8 1.4
29/12:00pm 16.8 15.6 12.7 77 2.3 N 11 17 6 9 994.8 994.6 1.4
29/11:30am 14.8 13.5 12.5 86 1.3 N 11 15 6 8 996.2 996.1 1.4
29/11:00am 14.4 12.5 11.7 84 1.5 NNW 13 19 7 10 996.6 996.5 1.2
29/10:30am 13.9 10.5 10.7 81 1.7 NNE 19 24 10 13 997.3 997.2 1.2
29/10:00am 13.4 12.4 12.3 93 0.6 NNE 9 15 5 8 997.9 997.8 1.0
29/09:43am 12.8 11.9 11.5 92 0.7 NNW 7 13 4 7 998.7 998.6 1.0
29/09:30am 12.5 11.6 11.4 93 0.6 N 7 9 4 5 998.9 998.8 0.8
29/09:00am 12.6 11.7 11.3 92 0.7 N 7 11 4 6 999.4 999.3 5.4
29/08:30am 12.8 11.6 11.5 92 0.7 N 9 17 5 9 999.8 999.7 4.2
29/08:00am 12.2 12.2 11.1 93 0.6 ENE 2 7 1 4 999.8 999.7 3.4
29/07:30am 12.1 11.0 11.8 98 0.2 WNW 9 13 5 7 1000.4 1000.3 2.6
29/07:00am 11.8 11.0 11.6 99 0.1 SSW 7 11 4 6 1000.2 1000.1 1.0
29/06:30am 11.9 10.9 11.0 94 0.5 SE 7 9 4 5 1000.8 1000.7 0.2
29/06:00am 12.1 10.9 9.5 84 1.3 WNW 6 9 3 5 1001.4 1001.3 0.0
29/05:30am 12.9 10.2 8.8 76 2.1 NW 13 20 7 11 1002.0 1001.9 0.0
29/05:00am 13.3 11.0 9.0 75 2.2 NNW 11 15 6 8 1001.6 1001.5 0.0
29/04:30am 13.6 11.3 9.1 74 2.3 N 11 17 6 9 1001.9 1001.8 0.0
29/04:00am 13.8 11.6 9.5 75 2.2 N 11 20 6 11 1002.1 1002.0 0.0
29/03:30am 12.5 11.0 8.4 76 2.0 N 6 9 3 5 1003.1 1002.9 0.0
29/03:00am 13.3 10.5 8.4 72 2.5 NNW 13 20 7 11 1003.7 1003.6 0.0
29/02:30am 13.6 10.1 8.9 73 2.4 N 17 30 9 16 1004.3 1004.2 0.0
29/02:00am 12.2 9.5 8.9 80 1.7 NW 13 17 7 9 1005.2 1005.1 0.0
29/01:30am 11.5 9.0 8.2 80 1.6 NNW 11 17 6 9 1005.9 1005.8 0.0
29/01:00am 10.6 7.3 8.2 85 1.2 NW 15 17 8 9 1006.7 1006.6 0.0
29/12:30am 8.0 6.0 7.1 94 0.4 NW 7 9 4 5 1007.0 1006.9 0.0
29/12:00am 8.8 8.3 7.9 94 0.4 CALM 0 6 0 3 1007.6 1007.5 0.0
 
Date/Time
EST
Temp
°C
App
Temp
°C
Dew
Point
°C
Rel
Hum
%
Delta-T
°C
Wind Press
QNH
hPa
Press
MSL
hPa
Rain since
9am
mm
Dir  Spd
km/h
Gust
km/h
Spd
kts
Gust
kts
28/11:30pm 9.8 7.6 7.7 87 1.0 WNW 9 11 5 6 1007.9 1007.8 0.0
28/11:00pm 9.0 6.7 7.3 89 0.8 NW 9 9 5 5 1008.5 1008.4 0.0
28/10:30pm 10.6 8.1 8.4 86 1.1 WNW 11 13 6 7 1008.7 1008.6 0.0

Latest Capital City Observations: Canberra | Sydney | Melbourne | Brisbane | Adelaide | Perth | Hobart | Darwin

Other Formats:

Comma delimited format used in spreadsheet applications
http://www.bom.gov.au/fwo/IDN60903/IDN60903.94750.axf

JavaScript Object Notation format (JSON) in row-major order
http://www.bom.gov.au/fwo/IDN60903/IDN60903.94750.json